Time;durP1;ratioP1;P1;durP2;ratioP2;P2;SDS_P1;SDS_P2;PMS_P1;PMS_P2;Temp;Humidity;BMP_temperature;BMP_pressure;BME280_temperature;BME280_humidity;BME280_pressure;Samples;Min_cycle;Max_cycle;Signal;HPM_P1;HPM_P2
2023/09/26 00:00:20;;;;;;;7.53;6.67;;;;;;;;;;5034053;28;20218;-81
2023/09/26 00:02:49;;;;;;;7.67;6.30;;;;;;;;;;5030922;28;20218;-84
2023/09/26 00:05:19;;;;;;;6.47;5.73;;;;;;;;;;5035741;28;20394;-80
2023/09/26 00:07:48;;;;;;;6.50;5.90;;;;;;;;;;5019939;28;20207;-81
2023/09/26 00:10:16;;;;;;;8.07;6.23;;;;;;;;;;5012805;28;20255;-83
2023/09/26 00:12:44;;;;;;;9.57;6.20;;;;;;;;;;5040200;28;20206;-81
2023/09/26 00:15:12;;;;;;;7.87;6.90;;;;;;;;;;5026993;28;20223;-81
2023/09/26 00:17:39;;;;;;;8.77;6.83;;;;;;;;;;5032274;28;20696;-82
2023/09/26 00:20:10;;;;;;;7.90;7.10;;;;;;;;;;5023638;28;20218;-83
2023/09/26 00:22:38;;;;;;;8.10;7.20;;;;;;;;;;5025670;28;20701;-83
2023/09/26 00:25:06;;;;;;;7.30;6.40;;;;;;;;;;5012253;28;20673;-83
2023/09/26 00:27:33;;;;;;;7.17;6.47;;;;;;;;;;5032169;28;20263;-84
2023/09/26 00:30:01;;;;;;;7.77;6.97;;;;;;;;;;5024544;28;20215;-84
2023/09/26 00:32:30;;;;;;;8.20;7.30;;;;;;;;;;5041118;28;20221;-79
2023/09/26 00:34:57;;;;;;;6.87;6.27;;;;;;;;;;5031793;28;20608;-83
2023/09/26 00:37:24;;;;;;;6.47;5.87;;;;;;;;;;5037764;28;20810;-81
2023/09/26 00:39:53;;;;;;;7.67;6.80;;;;;;;;;;5024782;28;20230;-81
2023/09/26 00:42:21;;;;;;;7.53;6.73;;;;;;;;;;5030634;28;20226;-84
2023/09/26 00:44:48;;;;;;;13.43;11.07;;;;;;;;;;5036964;28;20253;-81
2023/09/26 00:47:16;;;;;;;15.70;13.30;;;;;;;;;;5017318;28;20199;-81
2023/09/26 00:49:43;;;;;;;12.93;10.83;;;;;;;;;;5007817;28;20215;-81
2023/09/26 00:52:11;;;;;;;10.90;9.80;;;;;;;;;;5024019;28;20213;-81
2023/09/26 00:54:39;;;;;;;12.10;9.00;;;;;;;;;;5028690;28;20226;-78
2023/09/26 00:57:06;;;;;;;10.83;9.73;;;;;;;;;;5025710;28;20210;-85
2023/09/26 00:59:34;;;;;;;11.27;8.90;;;;;;;;;;5010288;28;20647;-83
2023/09/26 01:02:01;;;;;;;9.33;8.43;;;;;;;;;;5014634;28;20571;-82
2023/09/26 01:04:29;;;;;;;9.07;8.00;;;;;;;;;;5030227;28;20226;-83
2023/09/26 01:06:56;;;;;;;6.57;5.90;;;;;;;;;;5023835;28;20341;-82
2023/09/26 01:09:23;;;;;;;6.60;6.00;;;;;;;;;;5027261;28;20214;-81
2023/09/26 01:11:50;;;;;;;7.43;5.97;;;;;;;;;;5023766;28;20208;-83
2023/09/26 01:14:18;;;;;;;6.77;6.07;;;;;;;;;;5031541;28;20227;-84
2023/09/26 01:16:45;;;;;;;6.77;6.00;;;;;;;;;;5017476;28;20214;-83
2023/09/26 01:19:12;;;;;;;7.63;6.93;;;;;;;;;;5026226;28;20235;-79
2023/09/26 01:21:40;;;;;;;8.67;7.87;;;;;;;;;;5017476;28;20214;-81
2023/09/26 01:24:07;;;;;;;9.20;8.23;;;;;;;;;;5024551;28;20225;-85
2023/09/26 01:26:36;;;;;;;9.77;8.80;;;;;;;;;;5012879;28;20225;-83
2023/09/26 01:29:03;;;;;;;10.43;9.37;;;;;;;;;;5032815;28;20304;-82
2023/09/26 01:31:31;;;;;;;47.77;28.27;;;;;;;;;;5028306;28;20932;-84
2023/09/26 01:33:58;;;;;;;11.17;9.17;;;;;;;;;;5030201;28;20207;-82
2023/09/26 01:36:27;;;;;;;10.83;8.87;;;;;;;;;;5024946;28;20198;-80
2023/09/26 01:38:57;;;;;;;15.70;11.10;;;;;;;;;;5016396;28;20374;-83
2023/09/26 01:41:24;;;;;;;31.67;18.83;;;;;;;;;;5004509;28;20271;-82
2023/09/26 01:43:52;;;;;;;47.80;25.70;;;;;;;;;;5013478;28;20207;-82
2023/09/26 01:46:22;;;;;;;28.47;17.20;;;;;;;;;;5028758;28;20250;-84
2023/09/26 01:48:50;;;;;;;30.40;19.00;;;;;;;;;;5030285;28;20207;-84
2023/09/26 01:51:18;;;;;;;19.57;14.43;;;;;;;;;;5009258;28;21558;-84
2023/09/26 01:53:45;;;;;;;15.23;10.17;;;;;;;;;;5018386;28;20207;-84
2023/09/26 01:56:12;;;;;;;10.57;9.43;;;;;;;;;;5012135;28;20202;-83
2023/09/26 01:58:39;;;;;;;12.63;9.73;;;;;;;;;;5039836;28;20207;-84
2023/09/26 02:01:07;;;;;;;9.70;8.80;;;;;;;;;;5027986;28;20199;-83
2023/09/26 02:03:34;;;;;;;10.30;9.20;;;;;;;;;;5020336;28;20218;-84
2023/09/26 02:06:01;;;;;;;9.70;8.70;;;;;;;;;;5026344;28;20274;-81
2023/09/26 02:08:29;;;;;;;11.53;9.67;;;;;;;;;;5020174;28;20583;-84
2023/09/26 02:10:56;;;;;;;10.67;8.90;;;;;;;;;;5023299;28;20210;-83
2023/09/26 02:13:24;;;;;;;8.90;8.00;;;;;;;;;;5008696;28;20210;-82
2023/09/26 02:15:53;;;;;;;9.80;8.90;;;;;;;;;;5005114;28;20235;-82
2023/09/26 02:18:20;;;;;;;10.03;9.03;;;;;;;;;;5019782;28;20227;-84
2023/09/26 02:20:47;;;;;;;10.17;8.97;;;;;;;;;;5026692;28;20226;-80
2023/09/26 02:23:15;;;;;;;10.30;9.27;;;;;;;;;;5022282;28;20211;-82
2023/09/26 02:25:49;;;;;;;11.53;9.90;;;;;;;;;;5006263;28;20227;-81
2023/09/26 02:28:16;;;;;;;10.27;9.27;;;;;;;;;;4999531;28;20221;-84
2023/09/26 02:30:43;;;;;;;11.90;8.20;;;;;;;;;;5020396;28;20226;-83
2023/09/26 02:33:11;;;;;;;8.47;7.40;;;;;;;;;;5023778;28;20211;-80
2023/09/26 02:35:38;;;;;;;9.77;8.77;;;;;;;;;;5007550;28;20234;-79
2023/09/26 02:38:05;;;;;;;10.47;9.20;;;;;;;;;;5017063;28;20967;-83
2023/09/26 02:40:33;;;;;;;9.90;8.67;;;;;;;;;;5028469;28;20715;-83
2023/09/26 02:43:01;;;;;;;9.67;8.73;;;;;;;;;;5019998;28;20203;-81
2023/09/26 02:45:29;;;;;;;7.83;7.10;;;;;;;;;;5020689;28;20229;-83
2023/09/26 02:47:58;;;;;;;7.30;6.70;;;;;;;;;;5011189;28;20435;-81
2023/09/26 02:50:25;;;;;;;7.60;6.87;;;;;;;;;;5000110;28;20345;-83
2023/09/26 02:52:52;;;;;;;5.70;5.30;;;;;;;;;;5027460;28;20788;-82
2023/09/26 02:55:20;;;;;;;7.17;6.37;;;;;;;;;;5022817;28;20230;-83
2023/09/26 02:57:47;;;;;;;8.03;7.23;;;;;;;;;;5017853;28;20257;-83
2023/09/26 03:00:18;;;;;;;10.80;9.20;;;;;;;;;;5019932;28;20250;-82
2023/09/26 03:02:46;;;;;;;9.67;8.77;;;;;;;;;;5018751;28;20560;-83
2023/09/26 03:05:15;;;;;;;7.97;7.27;;;;;;;;;;5002091;28;20334;-80
2023/09/26 03:07:42;;;;;;;8.07;7.27;;;;;;;;;;5021562;28;20204;-81
2023/09/26 03:10:10;;;;;;;9.33;8.43;;;;;;;;;;5013114;28;20300;-81
2023/09/26 03:12:38;;;;;;;7.03;6.33;;;;;;;;;;5022773;28;20276;-82
2023/09/26 03:15:06;;;;;;;6.73;6.13;;;;;;;;;;5019639;28;20617;-83
2023/09/26 03:17:34;;;;;;;8.07;7.27;;;;;;;;;;5019097;28;20210;-83
2023/09/26 03:20:02;;;;;;;8.40;7.30;;;;;;;;;;5004142;28;20309;-85
2023/09/26 03:22:29;;;;;;;8.67;7.77;;;;;;;;;;5027934;28;20215;-83
2023/09/26 03:24:56;;;;;;;9.47;8.47;;;;;;;;;;5015103;28;20220;-82
2023/09/26 03:27:24;;;;;;;10.10;9.03;;;;;;;;;;5018086;28;20215;-84
2023/09/26 03:29:51;;;;;;;10.57;9.23;;;;;;;;;;5014781;28;20206;-84
2023/09/26 03:32:18;;;;;;;9.23;8.33;;;;;;;;;;4994489;28;20219;-81
2023/09/26 03:34:46;;;;;;;19.67;14.53;;;;;;;;;;5018194;28;20353;-77
2023/09/26 03:37:13;;;;;;;13.80;10.33;;;;;;;;;;4997834;28;20217;-83
2023/09/26 03:39:40;;;;;;;9.27;8.07;;;;;;;;;;5032954;28;21059;-84
2023/09/26 03:42:08;;;;;;;9.53;7.97;;;;;;;;;;5004534;28;20697;-82
2023/09/26 03:44:35;;;;;;;12.73;9.10;;;;;;;;;;5030296;28;20911;-81
2023/09/26 03:47:03;;;;;;;11.83;9.40;;;;;;;;;;5027388;28;21266;-82
2023/09/26 03:49:30;;;;;;;9.87;8.87;;;;;;;;;;5031403;28;20198;-82
2023/09/26 03:51:57;;;;;;;9.70;8.33;;;;;;;;;;5017745;28;20329;-84
2023/09/26 03:54:25;;;;;;;8.70;7.80;;;;;;;;;;5017640;28;20290;-83
2023/09/26 03:56:52;;;;;;;9.37;8.37;;;;;;;;;;5036485;28;20212;-82
2023/09/26 03:59:19;;;;;;;9.63;7.73;;;;;;;;;;5041287;28;20203;-80
2023/09/26 04:01:50;;;;;;;7.13;6.43;;;;;;;;;;5040517;28;20653;-82
2023/09/26 04:04:17;;;;;;;7.57;6.80;;;;;;;;;;5009243;28;20223;-83
2023/09/26 04:06:44;;;;;;;8.00;7.20;;;;;;;;;;5020901;28;20233;-84
2023/09/26 04:09:12;;;;;;;8.87;7.97;;;;;;;;;;5024631;28;20202;-83
2023/09/26 04:11:39;;;;;;;9.10;8.20;;;;;;;;;;5021042;28;20215;-83
2023/09/26 04:14:06;;;;;;;9.20;8.20;;;;;;;;;;5017171;28;20267;-83
2023/09/26 04:16:33;;;;;;;9.33;7.53;;;;;;;;;;5027968;28;20203;-83
2023/09/26 04:19:01;;;;;;;7.97;7.17;;;;;;;;;;5003568;28;20309;-82
2023/09/26 04:21:28;;;;;;;8.20;6.77;;;;;;;;;;5019070;28;20333;-83
2023/09/26 04:23:56;;;;;;;7.50;6.80;;;;;;;;;;5024754;28;20203;-81
2023/09/26 04:26:25;;;;;;;8.37;7.47;;;;;;;;;;5020583;28;20210;-81
2023/09/26 04:28:53;;;;;;;10.23;9.23;;;;;;;;;;5014441;28;20214;-82
2023/09/26 04:31:26;;;;;;;8.40;7.60;;;;;;;;;;5020128;28;20237;-80
2023/09/26 04:33:55;;;;;;;10.87;9.43;;;;;;;;;;5035715;28;20294;-80
2023/09/26 04:36:24;;;;;;;14.43;12.47;;;;;;;;;;5016673;28;20214;-82
2023/09/26 04:38:52;;;;;;;15.20;13.40;;;;;;;;;;5030894;28;20204;-80
2023/09/26 04:41:20;;;;;;;20.63;14.40;;;;;;;;;;5020593;28;20235;-83
2023/09/26 04:43:48;;;;;;;22.73;17.43;;;;;;;;;;5027825;28;20203;-82
2023/09/26 04:46:17;;;;;;;22.47;18.47;;;;;;;;;;5031105;28;20231;-82
2023/09/26 04:48:45;;;;;;;20.87;17.33;;;;;;;;;;5046103;28;20213;-83
2023/09/26 04:51:16;;;;;;;19.23;16.20;;;;;;;;;;5030733;28;20199;-83
2023/09/26 04:53:43;;;;;;;16.77;12.80;;;;;;;;;;5033378;28;20306;-84
2023/09/26 04:56:11;;;;;;;18.43;15.10;;;;;;;;;;5030427;28;20274;-83
2023/09/26 04:58:38;;;;;;;16.47;14.03;;;;;;;;;;5031626;28;20217;-80
2023/09/26 05:01:16;;;;;;;16.13;13.67;;;;;;;;;;5029995;28;20231;-79
2023/09/26 05:03:44;;;;;;;17.40;14.13;;;;;;;;;;5021523;28;20198;-82
2023/09/26 05:06:15;;;;;;;19.20;14.17;;;;;;;;;;5029993;28;20212;-83
2023/09/26 05:08:42;;;;;;;16.83;13.80;;;;;;;;;;5041832;28;20230;-83
2023/09/26 05:11:15;;;;;;;18.07;14.13;;;;;;;;;;5026750;28;20704;-83
2023/09/26 05:13:43;;;;;;;14.03;12.37;;;;;;;;;;5009845;28;20209;-81
2023/09/26 05:16:11;;;;;;;15.60;13.30;;;;;;;;;;5008602;28;20207;-82
2023/09/26 05:18:38;;;;;;;18.13;13.47;;;;;;;;;;5035251;28;20202;-83
2023/09/26 05:21:07;;;;;;;15.97;12.97;;;;;;;;;;5028509;28;20249;-79
2023/09/26 05:23:34;;;;;;;18.43;14.57;;;;;;;;;;5025711;28;20241;-82
2023/09/26 05:26:05;;;;;;;19.30;15.20;;;;;;;;;;5026959;28;20233;-81
2023/09/26 05:28:33;;;;;;;13.60;10.10;;;;;;;;;;5027157;28;20222;-83
2023/09/26 05:31:00;;;;;;;9.93;7.77;;;;;;;;;;5023831;28;20203;-80
2023/09/26 05:33:27;;;;;;;10.73;8.10;;;;;;;;;;5007714;28;20199;-85
2023/09/26 05:35:57;;;;;;;9.67;8.67;;;;;;;;;;5020173;28;20227;-81
2023/09/26 05:38:26;;;;;;;9.53;8.37;;;;;;;;;;5020989;28;20202;-82
2023/09/26 05:40:53;;;;;;;9.37;6.53;;;;;;;;;;5026433;28;20234;-80
2023/09/26 05:43:20;;;;;;;7.07;6.37;;;;;;;;;;5029912;28;20196;-82
2023/09/26 05:45:51;;;;;;;8.47;6.67;;;;;;;;;;5019561;28;20247;-83
2023/09/26 05:48:19;;;;;;;7.83;6.20;;;;;;;;;;5031080;28;20230;-80
2023/09/26 05:50:46;;;;;;;7.53;6.73;;;;;;;;;;5036568;28;20270;-82
2023/09/26 05:53:14;;;;;;;9.67;6.87;;;;;;;;;;5026650;28;20658;-83
2023/09/26 05:55:41;;;;;;;10.20;6.30;;;;;;;;;;5019469;28;20596;-78
2023/09/26 05:58:08;;;;;;;7.10;6.47;;;;;;;;;;5026080;28;20262;-78
2023/09/26 06:00:36;;;;;;;9.47;6.17;;;;;;;;;;5023469;28;20310;-81
2023/09/26 06:03:03;;;;;;;7.07;6.27;;;;;;;;;;5022082;28;20650;-80
2023/09/26 06:05:31;;;;;;;7.50;6.70;;;;;;;;;;5022548;28;20255;-81
2023/09/26 06:07:58;;;;;;;8.33;6.73;;;;;;;;;;5017606;28;20199;-79
2023/09/26 06:10:25;;;;;;;7.00;6.30;;;;;;;;;;5029885;28;20228;-81
2023/09/26 06:12:55;;;;;;;9.90;7.03;;;;;;;;;;5024599;28;20238;-80
2023/09/26 06:15:23;;;;;;;13.57;7.07;;;;;;;;;;5020884;28;20306;-83
2023/09/26 06:17:50;;;;;;;7.93;6.40;;;;;;;;;;5011775;28;20530;-83
2023/09/26 06:20:18;;;;;;;10.67;6.67;;;;;;;;;;5034904;28;20226;-78
2023/09/26 06:22:45;;;;;;;28.13;7.67;;;;;;;;;;5025892;28;20211;-83
2023/09/26 06:25:12;;;;;;;21.97;9.00;;;;;;;;;;5014058;28;20242;-82
2023/09/26 06:27:39;;;;;;;28.80;9.97;;;;;;;;;;5039172;28;20738;-82
2023/09/26 06:30:07;;;;;;;28.27;8.97;;;;;;;;;;5050368;28;20230;-81
2023/09/26 06:32:35;;;;;;;17.27;8.00;;;;;;;;;;5017987;28;20226;-85
2023/09/26 06:35:02;;;;;;;12.93;7.93;;;;;;;;;;5023055;28;20235;-83
2023/09/26 06:37:29;;;;;;;17.10;8.40;;;;;;;;;;5029125;28;20265;-83
2023/09/26 06:40:00;;;;;;;15.67;7.93;;;;;;;;;;5037928;28;20230;-83
2023/09/26 06:42:27;;;;;;;20.30;7.87;;;;;;;;;;5033392;28;20199;-81
2023/09/26 06:44:55;;;;;;;14.87;7.90;;;;;;;;;;5024391;28;20266;-84
2023/09/26 06:47:22;;;;;;;12.63;8.23;;;;;;;;;;5031462;28;20279;-80
2023/09/26 06:49:50;;;;;;;13.70;9.17;;;;;;;;;;5026799;28;20199;-80
2023/09/26 06:52:17;;;;;;;12.40;9.20;;;;;;;;;;5019633;28;20213;-79
2023/09/26 06:54:45;;;;;;;10.70;9.60;;;;;;;;;;5026876;28;20222;-82
2023/09/26 06:57:15;;;;;;;11.60;9.60;;;;;;;;;;5021968;28;20418;-79
2023/09/26 06:59:43;;;;;;;11.17;10.07;;;;;;;;;;5023221;28;20199;-82
2023/09/26 07:02:10;;;;;;;11.37;10.27;;;;;;;;;;5003498;28;20218;-84
2023/09/26 07:04:37;;;;;;;12.57;10.90;;;;;;;;;;5029396;28;20219;-85
2023/09/26 07:07:05;;;;;;;11.07;9.97;;;;;;;;;;5032869;28;20203;-83
2023/09/26 07:09:32;;;;;;;10.70;9.60;;;;;;;;;;5027094;28;20207;-80
2023/09/26 07:12:01;;;;;;;10.53;9.53;;;;;;;;;;5026389;28;20202;-81
2023/09/26 07:14:32;;;;;;;13.00;11.70;;;;;;;;;;5025843;28;20652;-78
2023/09/26 07:16:59;;;;;;;13.20;11.80;;;;;;;;;;5026007;28;20207;-80
2023/09/26 07:19:33;;;;;;;15.47;13.67;;;;;;;;;;5010554;28;20207;-80
2023/09/26 07:22:01;;;;;;;17.97;15.00;;;;;;;;;;5027191;28;20226;-80
2023/09/26 07:24:28;;;;;;;18.70;16.63;;;;;;;;;;5027621;28;21661;-82
2023/09/26 07:27:15;;;;;;;21.77;18.30;;;;;;;;;;5029027;28;20289;-83
2023/09/26 07:29:45;;;;;;;22.77;18.20;;;;;;;;;;5028246;28;20219;-85
2023/09/26 07:32:13;;;;;;;24.50;20.10;;;;;;;;;;5025074;28;20254;-79
2023/09/26 07:34:41;;;;;;;24.57;20.20;;;;;;;;;;5025037;28;20242;-83
2023/09/26 07:37:08;;;;;;;26.93;20.50;;;;;;;;;;5025033;28;20207;-82
2023/09/26 07:39:35;;;;;;;28.57;21.90;;;;;;;;;;5005884;28;20682;-80
2023/09/26 07:42:03;;;;;;;26.73;21.10;;;;;;;;;;5017340;28;20546;-85
2023/09/26 07:44:30;;;;;;;29.27;22.17;;;;;;;;;;5020442;28;20218;-82
2023/09/26 07:46:58;;;;;;;30.23;23.87;;;;;;;;;;5021726;28;20237;-83
2023/09/26 07:49:25;;;;;;;32.50;24.40;;;;;;;;;;5031164;28;20199;-81
2023/09/26 07:51:53;;;;;;;36.27;25.30;;;;;;;;;;5033249;28;20301;-81
2023/09/26 07:54:20;;;;;;;33.67;25.50;;;;;;;;;;5021785;28;20237;-80
2023/09/26 07:56:47;;;;;;;37.00;27.07;;;;;;;;;;5025559;28;20206;-81
2023/09/26 07:59:16;;;;;;;33.07;25.13;;;;;;;;;;5012523;28;20237;-81
2023/09/26 08:01:43;;;;;;;31.40;23.23;;;;;;;;;;5035635;28;20236;-84
2023/09/26 08:04:11;;;;;;;29.27;24.00;;;;;;;;;;5014581;28;20645;-82
2023/09/26 08:06:38;;;;;;;30.53;22.63;;;;;;;;;;5029969;28;20234;-81
2023/09/26 08:09:06;;;;;;;28.63;21.63;;;;;;;;;;5035535;28;20198;-81
2023/09/26 08:11:34;;;;;;;29.23;22.70;;;;;;;;;;5036998;28;20237;-79
2023/09/26 08:14:01;;;;;;;25.73;21.07;;;;;;;;;;5029225;28;20210;-83
2023/09/26 08:16:28;;;;;;;27.02;20.38;;;;;;;;;;5029549;28;20211;-80
2023/09/26 08:18:55;;;;;;;20.85;18.50;;;;;;;;;;5019585;28;20199;-81
2023/09/26 08:21:25;;;;;;;22.00;18.45;;;;;;;;;;5026443;28;20653;-81
2023/09/26 08:23:52;;;;;;;20.27;17.60;;;;;;;;;;5027346;28;20217;-80
2023/09/26 08:26:19;;;;;;;22.80;17.38;;;;;;;;;;5034470;28;20202;-85
2023/09/26 08:28:47;;;;;;;18.48;15.65;;;;;;;;;;5028758;28;20199;-82
2023/09/26 08:31:17;;;;;;;20.42;15.32;;;;;;;;;;5035709;28;20207;-80
2023/09/26 08:33:46;;;;;;;16.30;13.38;;;;;;;;;;5025710;28;21153;-84
2023/09/26 08:36:17;;;;;;;14.13;11.98;;;;;;;;;;5005126;28;20593;-80
2023/09/26 08:38:45;;;;;;;12.85;10.65;;;;;;;;;;5033061;28;20203;-83
2023/09/26 08:41:12;;;;;;;11.05;9.93;;;;;;;;;;5027511;28;20250;-81
2023/09/26 08:43:40;;;;;;;9.70;8.32;;;;;;;;;;5023002;28;20291;-83
2023/09/26 08:46:07;;;;;;;9.85;8.90;;;;;;;;;;5031711;28;20614;-84
2023/09/26 08:48:35;;;;;;;10.23;9.23;;;;;;;;;;5015334;28;20273;-80
2023/09/26 08:51:03;;;;;;;9.35;8.20;;;;;;;;;;5034994;28;20207;-84
2023/09/26 08:53:31;;;;;;;8.75;7.22;;;;;;;;;;5033003;28;20229;-82
2023/09/26 08:55:58;;;;;;;8.65;7.05;;;;;;;;;;5017144;28;20275;-85
2023/09/26 08:58:26;;;;;;;7.43;6.63;;;;;;;;;;5028917;28;20211;-82
2023/09/26 09:00:55;;;;;;;7.53;6.75;;;;;;;;;;5030426;28;20226;-80
2023/09/26 09:03:22;;;;;;;9.32;7.45;;;;;;;;;;5025601;28;20233;-78
2023/09/26 09:05:49;;;;;;;8.27;6.60;;;;;;;;;;5018044;28;20239;-78
2023/09/26 09:08:20;;;;;;;6.30;5.38;;;;;;;;;;5024006;28;20317;-80
2023/09/26 09:10:54;;;;;;;7.22;5.85;;;;;;;;;;5026935;28;20202;-81
2023/09/26 09:13:42;;;;;;;6.50;5.80;;;;;;;;;;5034267;28;20248;-82
2023/09/26 09:16:09;;;;;;;6.53;5.93;;;;;;;;;;5011994;28;20673;-83
2023/09/26 09:18:38;;;;;;;7.28;6.57;;;;;;;;;;5028493;28;20194;-81
2023/09/26 09:21:29;;;;;;;7.40;6.00;;;;;;;;;;5020763;28;20246;-81
2023/09/26 09:23:58;;;;;;;5.68;5.07;;;;;;;;;;5020097;28;20217;-83
2023/09/26 09:26:27;;;;;;;6.80;5.82;;;;;;;;;;5025897;28;20194;-83
2023/09/26 09:28:59;;;;;;;9.07;6.05;;;;;;;;;;5032502;28;20257;-84
2023/09/26 09:31:29;;;;;;;6.65;5.95;;;;;;;;;;5027279;28;20921;-85
2023/09/26 09:33:58;;;;;;;7.07;5.55;;;;;;;;;;5028926;28;20262;-83
2023/09/26 09:36:25;;;;;;;6.38;5.50;;;;;;;;;;5026332;28;20209;-83
2023/09/26 09:38:53;;;;;;;5.80;5.18;;;;;;;;;;5014972;28;20332;-83
2023/09/26 09:41:20;;;;;;;6.05;4.70;;;;;;;;;;5033156;28;20674;-82
2023/09/26 09:43:48;;;;;;;5.18;4.22;;;;;;;;;;5033307;28;20199;-80
2023/09/26 09:46:16;;;;;;;6.18;4.38;;;;;;;;;;5033001;28;20203;-83
2023/09/26 09:48:45;;;;;;;4.78;4.38;;;;;;;;;;5030279;28;20784;-80
2023/09/26 09:51:13;;;;;;;5.10;4.00;;;;;;;;;;5034306;28;20290;-80
2023/09/26 09:53:47;;;;;;;4.85;3.65;;;;;;;;;;5028321;28;20217;-84
2023/09/26 09:56:18;;;;;;;3.38;2.97;;;;;;;;;;5027012;28;20213;-82
2023/09/26 09:58:49;;;;;;;3.25;2.95;;;;;;;;;;5004355;28;20207;-80
2023/09/26 10:01:21;;;;;;;3.90;2.60;;;;;;;;;;5022417;28;20243;-82
2023/09/26 10:03:50;;;;;;;3.00;2.80;;;;;;;;;;5018411;28;20207;-81
2023/09/26 10:06:20;;;;;;;4.03;3.00;;;;;;;;;;5026135;28;20200;-83
2023/09/26 10:08:48;;;;;;;3.85;2.45;;;;;;;;;;5018378;28;20246;-84
2023/09/26 10:11:18;;;;;;;2.10;2.00;;;;;;;;;;5020594;28;20262;-83
2023/09/26 10:13:47;;;;;;;3.17;2.22;;;;;;;;;;5041306;28;20584;-82
2023/09/26 10:16:17;;;;;;;4.43;2.50;;;;;;;;;;5024043;28;20254;-80
2023/09/26 10:18:49;;;;;;;3.60;2.85;;;;;;;;;;5022598;28;20239;-79
2023/09/26 10:21:20;;;;;;;4.00;2.30;;;;;;;;;;5023242;28;20309;-81
2023/09/26 10:24:06;;;;;;;4.40;1.77;;;;;;;;;;5026191;28;20211;-81
2023/09/26 10:26:33;;;;;;;2.15;1.95;;;;;;;;;;5026801;28;20213;-80
2023/09/26 10:29:07;;;;;;;1.90;1.80;;;;;;;;;;5017832;28;20205;-82
2023/09/26 10:31:34;;;;;;;2.30;1.65;;;;;;;;;;5018763;28;20273;-81
2023/09/26 10:34:04;;;;;;;2.35;1.70;;;;;;;;;;5020970;28;20656;-79
2023/09/26 10:36:31;;;;;;;1.83;1.63;;;;;;;;;;5022290;28;20246;-82
2023/09/26 10:39:06;;;;;;;1.60;1.50;;;;;;;;;;5009330;28;20853;-82
2023/09/26 10:41:33;;;;;;;2.60;1.63;;;;;;;;;;5017447;28;20317;-81
2023/09/26 10:44:16;;;;;;;2.05;1.60;;;;;;;;;;5017605;28;20310;-81
2023/09/26 10:46:44;;;;;;;2.35;1.50;;;;;;;;;;5030040;28;20298;-83
2023/09/26 10:49:11;;;;;;;4.10;1.52;;;;;;;;;;5012275;28;20245;-80
2023/09/26 10:51:39;;;;;;;2.33;1.60;;;;;;;;;;5031320;28;20236;-81
2023/09/26 10:54:06;;;;;;;3.08;1.40;;;;;;;;;;5011183;28;21992;-81
2023/09/26 10:56:34;;;;;;;1.55;1.35;;;;;;;;;;5010963;28;20648;-80
2023/09/26 10:59:03;;;;;;;2.65;1.60;;;;;;;;;;5022359;28;20202;-81
2023/09/26 11:01:37;;;;;;;1.17;1.17;;;;;;;;;;5026877;28;20222;-82
2023/09/26 11:04:06;;;;;;;1.98;1.27;;;;;;;;;;5030121;28;20225;-80
2023/09/26 11:06:34;;;;;;;1.30;1.20;;;;;;;;;;5019388;28;20198;-79
2023/09/26 11:09:03;;;;;;;1.50;1.40;;;;;;;;;;5028573;28;20290;-80
2023/09/26 11:11:31;;;;;;;1.50;1.40;;;;;;;;;;5019599;28;20625;-80
2023/09/26 11:13:59;;;;;;;1.40;1.27;;;;;;;;;;5007360;28;20273;-79
2023/09/26 11:16:26;;;;;;;2.58;1.83;;;;;;;;;;5038154;28;20207;-78
2023/09/26 11:18:54;;;;;;;1.50;1.38;;;;;;;;;;5020890;28;20211;-82
2023/09/26 11:21:22;;;;;;;1.23;1.20;;;;;;;;;;5026214;28;20205;-80
2023/09/26 11:23:58;;;;;;;2.03;1.42;;;;;;;;;;5022505;28;20210;-78
2023/09/26 11:26:25;;;;;;;3.22;1.60;;;;;;;;;;5022178;28;20201;-87
2023/09/26 11:28:54;;;;;;;2.45;1.75;;;;;;;;;;5024525;28;20207;-79
2023/09/26 11:31:21;;;;;;;2.28;1.40;;;;;;;;;;5021665;28;20709;-83
2023/09/26 11:33:49;;;;;;;1.40;1.35;;;;;;;;;;5024288;28;20199;-79
2023/09/26 11:36:16;;;;;;;1.85;1.60;;;;;;;;;;5034537;28;20199;-80
2023/09/26 11:38:50;;;;;;;1.35;1.20;;;;;;;;;;5045672;28;20206;-81
2023/09/26 11:41:22;;;;;;;1.42;1.33;;;;;;;;;;5021268;28;20850;-80
2023/09/26 11:44:09;;;;;;;1.30;1.30;;;;;;;;;;5010340;28;20217;-82
2023/09/26 11:46:41;;;;;;;2.92;1.20;;;;;;;;;;5027189;28;20205;-79
2023/09/26 11:49:09;;;;;;;2.45;1.30;;;;;;;;;;5027078;28;20653;-81
2023/09/26 11:51:36;;;;;;;1.20;1.10;;;;;;;;;;5037098;28;20203;-79
2023/09/26 11:54:05;;;;;;;1.33;1.17;;;;;;;;;;5037883;28;20237;-83
2023/09/26 11:56:33;;;;;;;1.88;1.20;;;;;;;;;;5033399;28;20733;-78
2023/09/26 11:59:01;;;;;;;1.75;1.60;;;;;;;;;;5036195;28;20203;-80
2023/09/26 12:01:29;;;;;;;2.67;1.70;;;;;;;;;;5034495;28;20217;-78
2023/09/26 12:03:56;;;;;;;2.83;1.90;;;;;;;;;;5029666;28;20203;-80
2023/09/26 12:06:24;;;;;;;2.03;1.60;;;;;;;;;;5035184;28;20210;-80
2023/09/26 12:08:51;;;;;;;1.58;1.48;;;;;;;;;;5028742;28;20202;-83
2023/09/26 12:11:19;;;;;;;2.97;1.38;;;;;;;;;;5030091;28;20256;-80
2023/09/26 12:13:46;;;;;;;2.53;1.42;;;;;;;;;;5033725;28;20582;-84
2023/09/26 12:16:13;;;;;;;1.52;1.42;;;;;;;;;;5024955;28;20211;-83
2023/09/26 12:18:40;;;;;;;1.33;1.20;;;;;;;;;;5029344;28;20219;-85
2023/09/26 12:21:08;;;;;;;2.20;1.40;;;;;;;;;;5008483;28;20247;-82
2023/09/26 12:23:37;;;;;;;2.15;1.50;;;;;;;;;;5030560;28;20305;-83
2023/09/26 12:26:05;;;;;;;1.33;1.23;;;;;;;;;;5029053;28;20226;-81
2023/09/26 12:28:32;;;;;;;1.98;1.40;;;;;;;;;;5029643;28;20293;-83
2023/09/26 12:31:00;;;;;;;1.38;1.30;;;;;;;;;;5035646;28;20712;-85
2023/09/26 12:33:28;;;;;;;1.60;1.50;;;;;;;;;;5022158;28;20238;-81
2023/09/26 12:35:56;;;;;;;1.42;1.33;;;;;;;;;;5032960;28;20250;-82
2023/09/26 12:38:23;;;;;;;1.17;1.08;;;;;;;;;;5042668;28;20211;-80
2023/09/26 12:40:51;;;;;;;1.65;1.27;;;;;;;;;;5032603;28;20207;-82
2023/09/26 12:43:18;;;;;;;2.45;1.20;;;;;;;;;;5013187;28;20235;-82
2023/09/26 12:45:45;;;;;;;1.13;1.10;;;;;;;;;;5006392;28;20215;-78
2023/09/26 12:48:13;;;;;;;1.45;1.33;;;;;;;;;;5026487;28;20685;-80
2023/09/26 12:50:40;;;;;;;2.05;1.30;;;;;;;;;;5036231;28;20681;-79
2023/09/26 12:53:07;;;;;;;2.00;1.50;;;;;;;;;;5036242;28;20634;-79
2023/09/26 12:55:35;;;;;;;1.60;1.50;;;;;;;;;;5007984;28;20274;-77
2023/09/26 12:58:03;;;;;;;2.70;1.40;;;;;;;;;;5039907;28;20574;-80
2023/09/26 13:00:30;;;;;;;2.05;1.20;;;;;;;;;;5028769;28;20265;-79
2023/09/26 13:02:58;;;;;;;3.33;1.05;;;;;;;;;;5006726;28;20238;-83
2023/09/26 13:05:25;;;;;;;1.50;1.40;;;;;;;;;;5026689;28;20246;-83
2023/09/26 13:07:53;;;;;;;1.55;1.42;;;;;;;;;;5012230;28;20212;-83
2023/09/26 13:10:20;;;;;;;2.05;1.45;;;;;;;;;;5039233;28;20213;-83
2023/09/26 13:12:47;;;;;;;1.98;1.60;;;;;;;;;;5029546;28;20240;-80
2023/09/26 13:15:15;;;;;;;4.40;2.58;;;;;;;;;;5013737;28;20226;-84
2023/09/26 13:17:43;;;;;;;1.25;1.23;;;;;;;;;;5028782;28;20206;-80
2023/09/26 13:20:11;;;;;;;1.40;1.30;;;;;;;;;;5029064;28;20203;-80
2023/09/26 13:22:39;;;;;;;1.77;1.30;;;;;;;;;;5028319;28;20616;-81
2023/09/26 13:25:07;;;;;;;1.70;1.10;;;;;;;;;;5024282;28;20253;-81
2023/09/26 13:27:34;;;;;;;1.40;1.30;;;;;;;;;;5039157;28;20194;-81
2023/09/26 13:30:02;;;;;;;1.48;1.33;;;;;;;;;;5019224;28;20265;-81
2023/09/26 13:32:29;;;;;;;2.10;1.27;;;;;;;;;;5038280;28;20202;-82
2023/09/26 13:34:57;;;;;;;2.35;1.20;;;;;;;;;;5035933;28;20261;-82
2023/09/26 13:37:24;;;;;;;1.63;1.30;;;;;;;;;;5026265;28;20214;-83
2023/09/26 13:39:51;;;;;;;2.08;1.10;;;;;;;;;;5026853;28;20388;-80
2023/09/26 13:42:19;;;;;;;1.70;1.02;;;;;;;;;;5036421;28;20291;-79
2023/09/26 13:44:47;;;;;;;1.33;1.25;;;;;;;;;;5025577;28;20225;-82
2023/09/26 13:47:14;;;;;;;1.70;1.20;;;;;;;;;;5024570;28;20195;-79
2023/09/26 13:49:41;;;;;;;2.20;1.15;;;;;;;;;;5038799;28;20670;-82
2023/09/26 13:52:08;;;;;;;4.32;1.33;;;;;;;;;;5012326;28;20242;-80
2023/09/26 13:54:36;;;;;;;1.25;1.00;;;;;;;;;;5028218;28;20232;-82
2023/09/26 13:57:03;;;;;;;1.00;1.00;;;;;;;;;;5032398;28;20207;-79
2023/09/26 13:59:30;;;;;;;1.83;1.10;;;;;;;;;;5009136;28;20357;-82
2023/09/26 14:01:58;;;;;;;2.35;1.00;;;;;;;;;;5029605;28;20505;-81
2023/09/26 14:04:26;;;;;;;1.95;1.00;;;;;;;;;;5012810;28;20689;-84
2023/09/26 14:06:53;;;;;;;2.40;1.05;;;;;;;;;;5023874;28;20289;-80
2023/09/26 14:09:21;;;;;;;1.30;1.20;;;;;;;;;;5013125;28;20207;-81
2023/09/26 14:11:48;;;;;;;2.67;1.10;;;;;;;;;;5030295;28;20218;-83
2023/09/26 14:14:15;;;;;;;1.30;1.20;;;;;;;;;;5034266;28;20327;-81
2023/09/26 14:16:43;;;;;;;2.72;1.40;;;;;;;;;;5030020;28;20666;-83
2023/09/26 14:19:11;;;;;;;1.40;1.30;;;;;;;;;;5035322;28;20196;-83
2023/09/26 14:21:39;;;;;;;1.45;1.30;;;;;;;;;;5029902;28;20198;-83
2023/09/26 14:24:07;;;;;;;1.10;1.10;;;;;;;;;;5036319;28;20233;-81
2023/09/26 14:26:35;;;;;;;1.40;1.30;;;;;;;;;;5029525;28;20202;-80
2023/09/26 14:29:02;;;;;;;1.95;1.10;;;;;;;;;;5025181;28;20207;-81
2023/09/26 14:31:29;;;;;;;1.38;1.30;;;;;;;;;;5023227;28;20207;-81
2023/09/26 14:33:57;;;;;;;3.70;1.52;;;;;;;;;;5037995;28;20227;-81
2023/09/26 14:36:25;;;;;;;1.42;1.33;;;;;;;;;;5024752;28;20210;-83
2023/09/26 14:38:52;;;;;;;1.35;1.10;;;;;;;;;;5027988;28;20218;-82
2023/09/26 14:41:19;;;;;;;1.45;1.35;;;;;;;;;;5021597;28;20213;-82